Time;durP1;ratioP1;P1;durP2;ratioP2;P2;SDS_P1;SDS_P2;PMS_P1;PMS_P2;Temp;Humidity;BMP_temperature;BMP_pressure;BME280_temperature;BME280_humidity;BME280_pressure;Samples;Min_cycle;Max_cycle;Signal;HPM_P1;HPM_P2
2022/06/24 00:01:34;;;;;;;26.65;4.03;;;;;;;25.18;64.04;100088.13;5090954;28;20048;-88
2022/06/24 00:04:28;;;;;;;32.13;4.15;;;;;;;25.17;63.73;100086.50;5074920;28;20043;-87
2022/06/24 00:07:00;;;;;;;18.05;3.72;;;;;;;25.11;63.94;100082.16;5076781;28;20044;-89
2022/06/24 00:10:00;;;;;;;18.70;3.78;;;;;;;25.06;64.31;100078.59;5093876;28;20056;-90
2022/06/24 00:13:00;;;;;;;16.50;3.50;;;;;;;25.07;63.63;100081.06;5075612;28;20075;-89
2022/06/24 00:15:49;;;;;;;25.10;4.30;;;;;;;25.12;62.91;100070.19;5050083;28;20100;-87
2022/06/24 00:27:27;;;;;;;22.98;4.05;;;;;;;25.03;63.87;100063.69;5338069;22;20070;-89
2022/06/24 00:30:45;;;;;;;22.98;3.88;;;;;;;25.04;64.05;100059.06;5092689;28;20042;-91
2022/06/24 00:37:31;;;;;;;27.80;3.92;;;;;;;24.83;64.73;100047.38;5089919;28;20055;-89
2022/06/24 00:46:16;;;;;;;21.95;3.60;;;;;;;24.64;65.18;100043.47;5132140;22;20048;-88
2022/06/24 00:49:10;;;;;;;20.20;3.50;;;;;;;24.63;65.00;100049.97;5431355;22;20045;-89
2022/06/24 00:51:57;;;;;;;23.77;4.28;;;;;;;24.57;65.07;100056.47;5130822;22;20135;-88
2022/06/24 01:00:12;;;;;;;25.70;4.53;;;;;;;24.46;65.66;100047.47;5137064;22;20066;-89
2022/06/24 01:19:21;;;;;;;29.08;4.05;;;;;;;24.37;67.08;100038.22;5444324;22;20051;-89
2022/06/24 01:27:11;;;;;;;21.20;4.03;;;;;;;24.43;66.98;100041.75;2349644;26;20043;-88
2022/06/24 01:29:55;;;;;;;18.52;3.75;;;;;;;24.49;66.63;100046.16;5119450;22;20031;-88
2022/06/24 02:42:56;;;;;;;22.60;3.42;;;;;;;23.80;69.92;99989.41;5024537;22;20180;-83
2022/06/24 02:45:22;;;;;;;19.17;4.03;;;;;;;23.76;70.89;99982.91;4940705;28;20043;-82
2022/06/24 02:47:48;;;;;;;20.50;3.33;;;;;;;23.76;70.99;99974.81;4973051;28;20043;-82
2022/06/24 02:50:14;;;;;;;21.65;3.60;;;;;;;23.71;71.71;99980.16;4973122;28;20039;-81
2022/06/24 02:52:39;;;;;;;21.13;3.58;;;;;;;23.79;71.61;99981.56;4972974;28;20069;-82
2022/06/24 02:55:05;;;;;;;13.23;3.40;;;;;;;23.81;71.27;99980.22;4972967;28;20038;-81
2022/06/24 02:57:30;;;;;;;34.05;3.88;;;;;;;23.83;71.34;99978.06;4974611;28;20493;-80
2022/06/24 02:59:56;;;;;;;13.80;4.15;;;;;;;23.85;71.94;99985.94;4973000;28;20127;-81
2022/06/24 03:02:21;;;;;;;21.58;4.10;;;;;;;23.80;72.32;99984.00;4972882;28;20476;-80
2022/06/24 03:04:47;;;;;;;24.52;4.25;;;;;;;23.73;71.25;99983.41;4972425;28;20085;-82
2022/06/24 03:07:13;;;;;;;20.13;3.72;;;;;;;23.63;70.52;99988.78;4973969;28;20081;-83
2022/06/24 03:09:38;;;;;;;20.67;3.35;;;;;;;23.56;71.46;99982.78;4973670;28;20092;-83
2022/06/24 03:12:04;;;;;;;21.25;3.55;;;;;;;23.51;71.85;99975.44;4973142;28;20051;-82
2022/06/24 03:14:30;;;;;;;23.48;3.60;;;;;;;23.34;72.55;99979.31;4972868;28;20031;-82
2022/06/24 03:16:55;;;;;;;18.40;3.20;;;;;;;23.23;73.57;99977.63;4973131;28;20056;-83
2022/06/24 03:19:21;;;;;;;20.30;3.47;;;;;;;23.20;73.65;99983.56;4955528;28;20399;-83
2022/06/24 03:21:46;;;;;;;18.40;3.47;;;;;;;23.17;74.04;99982.97;4955350;28;20116;-79
2022/06/24 03:24:12;;;;;;;22.02;4.00;;;;;;;23.11;74.28;99992.13;4973053;28;20043;-81
2022/06/24 03:26:37;;;;;;;17.38;3.42;;;;;;;23.09;74.26;99990.75;4972655;28;20035;-84
2022/06/24 03:29:02;;;;;;;24.33;3.35;;;;;;;23.06;75.13;99991.25;4972555;28;20034;-80
2022/06/24 03:31:28;;;;;;;14.15;3.33;;;;;;;23.07;75.45;99998.28;4972515;28;20042;-80
2022/06/24 03:33:58;;;;;;;14.98;3.00;;;;;;;23.21;74.56;99999.50;4972365;28;20066;-81
2022/06/24 03:36:24;;;;;;;18.48;3.47;;;;;;;23.30;73.55;99999.88;4972522;28;20507;-81
2022/06/24 03:38:50;;;;;;;17.85;3.53;;;;;;;23.09;73.69;100005.09;4972554;28;20380;-79
2022/06/24 03:41:16;;;;;;;13.25;3.65;;;;;;;23.12;74.24;100001.88;4955058;28;20046;-85
2022/06/24 03:43:41;;;;;;;19.17;3.88;;;;;;;23.25;72.55;100005.22;4971460;28;20045;-82
2022/06/24 03:46:07;;;;;;;18.65;3.65;;;;;;;23.30;71.94;100016.09;4972585;28;20035;-84
2022/06/24 03:48:33;;;;;;;18.65;3.17;;;;;;;23.37;71.45;100022.88;4971619;28;20034;-82
2022/06/24 03:51:00;;;;;;;23.80;4.13;;;;;;;23.16;72.50;100024.63;4972810;28;20027;-80
2022/06/24 03:53:41;;;;;;;14.70;3.10;;;;;;;23.15;71.77;100028.38;4969017;28;20054;-84
2022/06/24 03:56:10;;;;;;;19.30;3.60;;;;;;;23.13;72.01;100027.03;4957476;28;20093;-84
2022/06/24 03:58:43;;;;;;;22.27;3.20;;;;;;;23.04;72.07;100023.94;5005541;22;20051;-83
2022/06/24 04:01:42;;;;;;;18.70;3.45;;;;;;;22.98;71.71;100024.16;4982241;28;20039;-84
2022/06/24 04:04:07;;;;;;;17.70;3.58;;;;;;;22.86;72.37;100016.22;4985807;28;20059;-82
2022/06/24 04:06:33;;;;;;;21.13;3.10;;;;;;;22.76;72.26;100020.69;4980192;28;20495;-81
2022/06/24 04:08:59;;;;;;;17.75;3.50;;;;;;;22.73;72.37;100019.31;4982423;28;20409;-85
2022/06/24 04:11:49;;;;;;;20.95;3.55;;;;;;;22.63;73.50;100020.00;5008190;22;20054;-86
2022/06/24 04:17:52;;;;;;;14.05;2.72;;;;;;;22.57;75.18;100025.59;5046260;28;20075;-86
2022/06/24 04:20:20;;;;;;;17.90;3.58;;;;;;;22.57;75.78;100022.88;5064465;28;20029;-84
2022/06/24 04:22:55;;;;;;;19.50;3.97;;;;;;;22.55;75.73;100028.53;5047586;28;20044;-84
2022/06/24 04:25:23;;;;;;;23.15;3.95;;;;;;;22.57;76.47;100034.47;5064552;28;20036;-82
2022/06/24 04:27:55;;;;;;;32.17;4.43;;;;;;;22.63;76.40;100025.38;5068395;28;20029;-84
2022/06/24 04:30:44;;;;;;;27.80;3.90;;;;;;;22.76;76.29;100032.31;5049668;28;20119;-83
2022/06/24 04:37:18;;;;;;;20.80;3.83;;;;;;;22.98;75.10;100038.47;5127021;22;20060;-84
2022/06/24 04:40:31;;;;;;;20.05;4.22;;;;;;;23.21;74.13;100048.16;4995740;28;20033;-81
2022/06/24 04:43:41;;;;;;;22.40;4.20;;;;;;;23.36;73.72;100047.50;4937240;28;20092;-85
2022/06/24 04:46:08;;;;;;;21.45;3.65;;;;;;;23.64;72.02;100055.34;5053453;23;20068;-86
2022/06/24 04:48:47;;;;;;;24.70;4.00;;;;;;;23.66;72.25;100048.56;5068593;28;20046;-82
2022/06/24 04:51:22;;;;;;;15.00;4.00;;;;;;;23.73;72.19;100042.16;5075002;28;20394;-84
2022/06/24 04:54:15;;;;;;;26.17;4.93;;;;;;;23.76;71.90;100047.88;5096873;22;20045;-84
2022/06/24 04:57:07;;;;;;;44.53;5.00;;;;;;;23.66;72.70;100047.78;5020552;28;20050;-83
2022/06/24 04:59:35;;;;;;;65.60;6.32;;;;;;;23.64;72.81;100063.44;5029828;28;20137;-84
2022/06/24 05:02:12;;;;;;;45.00;5.78;;;;;;;23.69;72.38;100063.50;5009348;28;20072;-83
2022/06/24 05:05:05;;;;;;;27.27;4.22;;;;;;;23.76;71.80;100053.28;5106886;22;20064;-86
2022/06/24 05:07:56;;;;;;;17.88;4.32;;;;;;;23.84;71.50;100058.19;4995909;28;20039;-86
2022/06/24 05:11:00;;;;;;;17.38;3.58;;;;;;;23.90;71.16;100065.25;5032214;23;20123;-84
2022/06/24 05:13:47;;;;;;;19.58;3.50;;;;;;;24.10;69.97;100059.16;4998744;28;20026;-81
2022/06/24 05:16:31;;;;;;;28.42;4.20;;;;;;;24.06;71.14;100058.09;4990239;28;20095;-84
2022/06/24 05:19:11;;;;;;;18.85;3.88;;;;;;;24.21;70.79;100065.50;5074669;23;20040;-85
2022/06/24 05:21:53;;;;;;;15.65;3.20;;;;;;;24.34;69.47;100065.03;5063685;28;20028;-84
2022/06/24 05:24:54;;;;;;;20.98;3.88;;;;;;;24.51;68.80;100055.63;5108104;23;20059;-82
2022/06/24 05:27:21;;;;;;;24.33;4.15;;;;;;;24.69;68.77;100057.84;5076408;28;20033;-85
2022/06/24 05:29:46;;;;;;;18.58;3.35;;;;;;;24.69;69.07;100054.34;5075975;28;20061;-85
2022/06/24 05:32:23;;;;;;;22.60;3.08;;;;;;;24.80;68.55;100052.47;5075570;28;20029;-84
2022/06/24 05:34:57;;;;;;;19.95;3.80;;;;;;;24.91;67.81;100059.59;5057922;28;20055;-83
2022/06/24 05:37:31;;;;;;;19.98;3.38;;;;;;;24.97;67.61;100053.91;5074125;28;20054;-83
2022/06/24 05:39:58;;;;;;;25.98;3.28;;;;;;;25.06;67.05;100060.44;5047422;28;20474;-85
2022/06/24 05:42:25;;;;;;;21.30;3.53;;;;;;;25.20;66.40;100056.13;5074390;28;20071;-82
2022/06/24 05:44:52;;;;;;;23.45;3.38;;;;;;;25.31;66.47;100064.28;5058711;28;20079;-81
2022/06/24 05:47:18;;;;;;;16.38;3.33;;;;;;;25.51;66.29;100064.31;5060627;28;20037;-85
2022/06/24 05:49:57;;;;;;;17.85;3.50;;;;;;;25.76;65.73;100055.34;5059694;28;20052;-82
2022/06/24 05:55:20;;;;;;;24.00;3.13;;;;;;;26.30;62.91;100060.97;5077693;28;20027;-83
2022/06/24 05:57:54;;;;;;;19.98;3.33;;;;;;;26.59;61.23;100053.81;5060485;28;20093;-84
2022/06/24 06:00:20;;;;;;;20.77;2.92;;;;;;;26.80;59.93;100054.53;5060134;28;20037;-84
2022/06/24 06:02:45;;;;;;;21.40;2.95;;;;;;;26.85;59.74;100052.63;5074102;28;20029;-82
2022/06/24 06:05:11;;;;;;;28.70;3.78;;;;;;;27.09;58.16;100059.00;5058301;28;20036;-83
2022/06/24 06:07:40;;;;;;;16.90;2.92;;;;;;;27.34;57.23;100066.19;5075328;28;20052;-83
2022/06/24 06:10:06;;;;;;;17.08;3.30;;;;;;;27.52;55.45;100062.00;5061948;28;20037;-84
2022/06/24 06:12:51;;;;;;;12.07;2.33;;;;;;;27.89;53.41;100056.75;5283631;22;20022;-82
2022/06/24 06:15:22;;;;;;;27.35;3.13;;;;;;;28.22;53.64;100061.34;4996070;28;20078;-82
2022/06/24 07:00:33;;;;;;;;;;;;;;;30.61;42.65;100071.03;2480822;22;20054;-86
2022/06/24 07:05:50;;;;;;;18.50;3.00;;;;;;;30.93;40.99;100063.78;5080733;22;20094;-86
2022/06/24 07:08:18;;;;;;;10.70;2.78;;;;;;;31.31;39.43;100067.03;4977174;28;21275;-86
2022/06/24 07:10:47;;;;;;;14.60;2.53;;;;;;;31.11;40.19;100073.81;4976632;28;20051;-83
2022/06/24 07:13:24;;;;;;;11.43;2.40;;;;;;;31.33;39.24;100073.00;4976089;28;20016;-82
2022/06/24 07:15:59;;;;;;;15.45;2.72;;;;;;;31.12;40.34;100065.28;4976202;28;20023;-86
2022/06/24 07:18:25;;;;;;;12.50;2.42;;;;;;;31.06;40.11;100072.00;4986065;28;20054;-85
2022/06/24 07:20:51;;;;;;;12.77;2.42;;;;;;;31.16;39.72;100060.00;4972458;28;20040;-85
2022/06/24 07:23:17;;;;;;;14.45;2.70;;;;;;;31.40;39.78;100051.47;4974409;28;20050;-80
2022/06/24 07:25:42;;;;;;;11.40;2.40;;;;;;;31.48;38.24;100051.56;4974344;28;20028;-83
2022/06/24 07:28:08;;;;;;;15.50;1.90;;;;;;;32.06;37.05;100056.94;4973351;28;20099;-84
2022/06/24 07:30:33;;;;;;;12.93;2.08;;;;;;;31.79;37.27;100057.09;5040537;28;20044;-83
2022/06/24 07:32:59;;;;;;;16.35;2.50;;;;;;;31.89;37.79;100048.59;5041266;28;20035;-83
2022/06/24 07:35:25;;;;;;;11.60;2.22;;;;;;;32.26;36.06;100053.66;4971106;28;20032;-83
2022/06/24 07:37:51;;;;;;;14.60;2.17;;;;;;;32.07;35.86;100047.59;4973034;28;20044;-83
2022/06/24 07:40:16;;;;;;;13.13;2.25;;;;;;;32.36;34.75;100046.25;5051593;28;20033;-85
2022/06/24 07:42:42;;;;;;;14.75;2.22;;;;;;;32.68;34.24;100043.16;5074796;28;20072;-83
2022/06/24 07:45:12;;;;;;;14.50;2.60;;;;;;;32.47;34.91;100047.59;5055826;28;20037;-87
2022/06/24 07:47:37;;;;;;;11.25;2.08;;;;;;;33.66;32.93;100049.66;5074544;28;20045;-87
2022/06/24 07:50:04;;;;;;;14.80;2.35;;;;;;;32.50;33.74;100042.28;5071757;28;20045;-83
2022/06/24 07:52:32;;;;;;;10.95;2.50;;;;;;;32.24;34.30;100044.94;5072508;28;20045;-87
2022/06/24 07:58:06;;;;;;;7.10;1.92;;;;;;;32.33;34.88;100035.91;4957651;28;20130;-84
2022/06/24 08:00:32;;;;;;;10.82;2.22;;;;;;;32.55;34.33;100035.81;4966649;28;20031;-83
2022/06/24 08:02:59;;;;;;;10.48;2.10;;;;;;;32.82;32.84;100032.81;4962567;28;20046;-84
2022/06/24 08:05:25;;;;;;;16.42;2.53;;;;;;;33.15;32.06;100031.25;5038411;28;20043;-84
2022/06/24 08:07:53;;;;;;;14.55;2.17;;;;;;;33.24;31.44;100029.31;4970324;28;20042;-84
2022/06/24 08:10:19;;;;;;;11.50;2.03;;;;;;;33.07;32.21;100023.81;5036933;28;20423;-84
2022/06/24 08:12:45;;;;;;;8.43;1.90;;;;;;;33.70;31.27;100019.56;5029527;28;20051;-90
2022/06/24 08:15:11;;;;;;;8.90;2.05;;;;;;;33.47;31.75;100015.41;4978606;28;20038;-86
2022/06/24 08:17:36;;;;;;;17.92;2.20;;;;;;;33.40;31.15;99999.41;5050872;28;20043;-86
2022/06/24 08:20:06;;;;;;;10.75;1.70;;;;;;;33.62;30.91;100007.47;4977016;28;20031;-87
2022/06/24 08:22:34;;;;;;;7.03;1.75;;;;;;;33.52;30.58;100010.53;4958653;28;20031;-84
2022/06/24 08:25:03;;;;;;;9.43;2.00;;;;;;;33.28;31.13;99995.72;5021419;28;20036;-86
2022/06/24 08:27:28;;;;;;;14.88;2.38;;;;;;;33.28;31.79;99991.81;4960275;28;20042;-88
2022/06/24 08:29:54;;;;;;;9.52;1.88;;;;;;;33.23;30.80;99986.50;4971556;28;20035;-89
2022/06/24 08:32:19;;;;;;;14.95;2.33;;;;;;;32.56;31.51;99990.78;4977615;28;20031;-88
2022/06/24 08:34:45;;;;;;;13.40;1.73;;;;;;;32.36;32.17;100003.16;4957530;28;20023;-87
2022/06/24 08:37:10;;;;;;;13.27;2.05;;;;;;;32.52;32.80;99984.31;4976637;28;20027;-86
2022/06/24 08:39:36;;;;;;;11.15;1.77;;;;;;;32.93;32.04;99984.72;4957899;28;20043;-85
2022/06/24 08:42:03;;;;;;;14.00;2.28;;;;;;;32.83;31.71;99985.03;4963706;28;20035;-87
2022/06/24 08:44:29;;;;;;;10.43;2.08;;;;;;;33.15;31.78;99987.31;5031578;28;20065;-84
2022/06/24 08:46:58;;;;;;;15.18;2.10;;;;;;;33.02;31.02;99977.28;5037877;28;20040;-89
2022/06/24 08:49:30;;;;;;;11.68;2.15;;;;;;;33.60;31.15;99989.66;5042057;28;20050;-91
2022/06/24 08:52:12;;;;;;;9.20;1.80;;;;;;;33.63;30.11;99980.78;4982587;28;20134;-89
2022/06/24 08:55:08;;;;;;;13.32;2.00;;;;;;;32.72;30.73;99983.72;4977232;28;20150;-90
2022/06/24 08:57:37;;;;;;;14.07;2.13;;;;;;;33.34;29.63;99989.72;4972287;28;20039;-91
2022/06/24 09:00:07;;;;;;;6.72;1.77;;;;;;;33.65;29.64;99984.81;4960066;28;20016;-89
2022/06/24 09:02:35;;;;;;;10.93;1.60;;;;;;;33.85;29.60;99988.78;4983250;28;20132;-88
2022/06/24 09:05:08;;;;;;;13.48;2.20;;;;;;;34.10;29.48;99996.13;4985792;28;20057;-90
2022/06/24 09:07:37;;;;;;;14.70;2.08;;;;;;;33.63;29.86;99986.28;4973391;28;20063;-90
2022/06/24 09:10:10;;;;;;;9.30;1.42;;;;;;;33.95;29.08;99988.41;5022357;28;20031;-90
2022/06/24 09:16:07;;;;;;;8.15;1.50;;;;;;;33.61;29.80;99983.06;4958139;28;20089;-90
2022/06/24 09:18:33;;;;;;;17.55;2.50;;;;;;;33.70;29.62;99989.34;4947042;28;20032;-87
2022/06/24 09:20:59;;;;;;;10.80;2.10;;;;;;;34.01;29.18;99980.78;5039347;22;20067;-90
2022/06/24 09:31:07;;;;;;;13.10;1.70;;;;;;;32.73;32.02;99966.13;5085409;28;20059;-87
2022/06/24 09:33:44;;;;;;;11.25;1.98;;;;;;;32.57;31.95;99959.47;5073940;28;20093;-84
2022/06/24 09:39:15;;;;;;;7.25;1.92;;;;;;;31.94;33.08;99955.28;4981254;28;20053;-84
2022/06/24 09:41:49;;;;;;;12.57;1.83;;;;;;;32.22;32.21;99958.59;4966428;28;20099;-85
2022/06/24 09:44:16;;;;;;;13.95;2.17;;;;;;;32.19;32.60;99965.53;4955799;28;20035;-85
2022/06/24 09:46:42;;;;;;;10.82;1.98;;;;;;;32.61;31.68;99960.50;4963682;28;20043;-91
2022/06/24 09:49:13;;;;;;;18.63;2.20;;;;;;;32.65;30.29;99956.75;4964428;28;20038;-87
2022/06/24 09:51:40;;;;;;;9.63;1.48;;;;;;;33.15;29.11;99965.34;4952456;28;20047;-92
2022/06/24 09:54:17;;;;;;;11.27;1.63;;;;;;;33.34;27.26;99962.25;4954076;28;20035;-90
2022/06/24 09:56:47;;;;;;;6.25;1.40;;;;;;;33.43;27.14;99964.97;4961031;28;20443;-92
2022/06/24 10:02:00;;;;;;;22.80;2.35;;;;;;;33.12;28.21;99965.19;4957867;28;20053;-83
2022/06/24 10:04:28;;;;;;;9.70;2.05;;;;;;;33.43;28.03;99973.22;4952479;28;20125;-81
2022/06/24 10:06:56;;;;;;;8.27;1.85;;;;;;;33.34;28.61;99977.94;4939915;28;20028;-85
2022/06/24 10:09:31;;;;;;;9.38;1.70;;;;;;;32.93;29.09;99978.41;4953996;28;20046;-85
2022/06/24 10:11:58;;;;;;;13.15;1.67;;;;;;;32.96;29.06;99970.34;4945162;28;20047;-86
2022/06/24 10:14:29;;;;;;;8.35;1.75;;;;;;;33.17;28.78;99974.06;4957516;28;20070;-81
2022/06/24 10:16:59;;;;;;;9.20;1.60;;;;;;;33.33;28.38;99976.31;4961230;28;20043;-81
2022/06/24 10:19:28;;;;;;;16.27;1.60;;;;;;;33.36;28.08;99986.63;4956693;28;20290;-81
2022/06/24 10:21:55;;;;;;;7.47;1.63;;;;;;;33.06;27.80;99983.75;4954066;28;20031;-83
2022/06/24 10:24:20;;;;;;;10.38;3.03;;;;;;;32.62;29.42;99997.75;4954653;28;20156;-82
2022/06/24 10:26:48;;;;;;;13.82;2.10;;;;;;;32.46;31.18;99996.56;4953608;28;20063;-78
2022/06/24 10:29:13;;;;;;;11.60;2.00;;;;;;;32.66;31.61;100004.22;4955419;28;20035;-80
2022/06/24 10:31:44;;;;;;;11.73;2.00;;;;;;;32.68;30.98;99988.28;4956805;28;20034;-79
2022/06/24 10:34:30;;;;;;;15.30;2.05;;;;;;;32.51;31.18;99978.03;4958328;28;20031;-78
2022/06/24 10:37:23;;;;;;;10.52;2.17;;;;;;;32.83;30.88;99990.53;4953686;28;20129;-80
2022/06/24 10:40:05;;;;;;;8.03;1.63;;;;;;;33.58;28.78;99983.66;4952396;28;20084;-81
2022/06/24 10:42:36;;;;;;;12.90;2.00;;;;;;;33.64;27.92;99993.41;4965580;28;20287;-80
2022/06/24 10:45:10;;;;;;;8.15;1.65;;;;;;;34.00;26.35;99991.00;5061424;23;20040;-83
2022/06/24 10:48:19;;;;;;;11.18;1.65;;;;;;;34.30;25.93;99977.28;5063728;28;20040;-81
2022/06/24 10:51:20;;;;;;;9.40;1.63;;;;;;;34.13;26.83;99978.19;5037050;28;20040;-81
2022/06/24 10:54:01;;;;;;;8.18;1.35;;;;;;;33.74;27.08;99980.09;5056892;28;20480;-93
2022/06/24 10:56:44;;;;;;;8.70;1.40;;;;;;;33.87;26.40;99978.28;5056703;28;20182;-88
2022/06/24 10:59:12;;;;;;;8.48;1.45;;;;;;;33.41;27.37;99973.53;5056849;28;20061;-89
2022/06/24 11:01:44;;;;;;;5.55;1.40;;;;;;;33.66;27.10;99969.13;5048434;28;20121;-86
2022/06/24 11:04:31;;;;;;;13.48;1.98;;;;;;;34.08;27.05;99970.88;5046244;28;20025;-85
2022/06/24 11:07:15;;;;;;;9.30;1.42;;;;;;;34.27;27.11;99963.03;5040888;28;20049;-86
2022/06/24 11:09:41;;;;;;;14.05;2.08;;;;;;;34.14;26.37;99964.09;5058520;28;20085;-84
2022/06/24 11:12:27;;;;;;;9.18;1.67;;;;;;;34.05;26.69;99957.78;5039947;28;20044;-87
2022/06/24 11:14:53;;;;;;;7.28;1.70;;;;;;;34.32;26.46;99964.00;5019423;28;20061;-84
2022/06/24 11:17:26;;;;;;;7.68;1.42;;;;;;;34.41;26.55;99959.22;5037308;28;20037;-86
2022/06/24 11:19:52;;;;;;;9.73;1.38;;;;;;;34.49;26.28;99963.88;5041455;28;20040;-82
2022/06/24 11:22:19;;;;;;;9.52;1.88;;;;;;;34.56;26.31;99942.13;5047808;28;20037;-82
2022/06/24 11:24:49;;;;;;;7.82;1.83;;;;;;;34.30;26.78;99947.00;5048718;28;20061;-81
2022/06/24 11:27:15;;;;;;;10.93;1.80;;;;;;;34.65;26.06;99940.16;5045511;28;20079;-87
2022/06/24 11:29:58;;;;;;;10.07;1.08;;;;;;;34.30;26.20;99944.25;5044848;28;20068;-86
2022/06/24 11:32:25;;;;;;;9.43;2.00;;;;;;;33.75;27.22;99939.66;5022124;28;20033;-81
2022/06/24 11:34:51;;;;;;;11.20;1.77;;;;;;;33.57;27.66;99951.84;5041686;28;20029;-83
2022/06/24 11:37:22;;;;;;;8.70;1.30;;;;;;;32.99;28.68;99944.97;5052971;28;20059;-86
2022/06/24 11:39:52;;;;;;;7.05;1.55;;;;;;;32.92;28.86;99941.09;5026253;28;20039;-83
2022/06/24 11:42:18;;;;;;;9.55;1.38;;;;;;;32.74;29.79;99938.38;5052316;28;20043;-85
2022/06/24 11:44:44;;;;;;;12.57;1.42;;;;;;;32.41;30.10;99939.13;5032099;28;20029;-84
2022/06/24 11:47:10;;;;;;;6.75;1.10;;;;;;;32.32;29.75;99935.56;5025187;28;20383;-84
2022/06/24 11:49:39;;;;;;;10.35;1.73;;;;;;;32.18;30.24;99933.75;5033079;28;20093;-85
2022/06/24 11:52:05;;;;;;;13.65;1.73;;;;;;;32.09;29.54;99926.63;5052564;28;20032;-83
2022/06/24 11:54:31;;;;;;;6.53;1.52;;;;;;;32.01;29.48;99925.47;5026423;28;20136;-87
2022/06/24 11:56:58;;;;;;;11.50;1.67;;;;;;;31.78;28.99;99921.19;5027867;28;20041;-85
2022/06/24 11:59:26;;;;;;;8.35;1.48;;;;;;;31.58;29.90;99921.75;5044648;28;20065;-84
2022/06/24 12:01:53;;;;;;;7.65;1.13;;;;;;;31.60;29.84;99933.19;5043161;28;20065;-85
2022/06/24 12:04:22;;;;;;;10.23;1.58;;;;;;;31.63;29.79;99927.09;5045727;28;20033;-86
2022/06/24 12:06:48;;;;;;;7.78;1.58;;;;;;;31.68;30.28;99930.50;5025916;28;20130;-84
2022/06/24 12:09:15;;;;;;;10.80;1.65;;;;;;;31.70;29.96;99925.50;5045585;28;20040;-84
2022/06/24 12:11:48;;;;;;;10.23;1.60;;;;;;;31.59;30.05;99924.16;5043897;28;20036;-86
2022/06/24 12:14:15;;;;;;;12.95;1.52;;;;;;;31.57;30.14;99923.69;5043219;28;20045;-85
2022/06/24 12:17:02;;;;;;;8.25;1.55;;;;;;;31.33;30.51;99920.47;5008894;28;20037;-84
2022/06/24 12:19:31;;;;;;;7.18;1.45;;;;;;;31.29;31.10;99924.16;5041907;28;20080;-82
2022/06/24 12:22:10;;;;;;;7.95;1.70;;;;;;;31.40;31.23;99933.69;5022648;28;20044;-85
2022/06/24 12:24:40;;;;;;;4.72;1.27;;;;;;;31.25;31.73;99927.50;5025919;28;20045;-84
2022/06/24 12:27:07;;;;;;;9.52;1.50;;;;;;;31.30;32.80;99923.81;5031388;28;20785;-82
2022/06/24 12:29:36;;;;;;;14.73;1.65;;;;;;;31.19;32.46;99920.53;5053781;28;20037;-84
2022/06/24 12:32:03;;;;;;;14.10;1.52;;;;;;;31.34;33.01;99905.66;5045010;28;20037;-86
2022/06/24 12:34:42;;;;;;;11.93;1.60;;;;;;;31.21;32.75;99918.31;5012047;28;20508;-84
2022/06/24 12:37:10;;;;;;;6.90;1.42;;;;;;;31.07;33.37;99909.34;5035524;28;20041;-83
2022/06/24 12:39:41;;;;;;;6.03;1.45;;;;;;;30.98;32.85;99904.94;5058203;28;20497;-81
2022/06/24 12:42:17;;;;;;;8.63;1.92;;;;;;;30.91;32.91;99888.94;5062750;28;20120;-80
2022/06/24 12:44:45;;;;;;;9.90;1.60;;;;;;;31.00;32.92;99892.56;5061455;28;20044;-85
2022/06/24 12:53:03;;;;;;;10.88;1.98;;;;;;;30.94;32.98;99884.75;5054197;28;20398;-80
2022/06/24 12:55:31;;;;;;;6.32;1.42;;;;;;;30.98;32.81;99872.91;5052197;28;20100;-85
2022/06/24 12:57:58;;;;;;;13.52;1.50;;;;;;;30.79;32.43;99855.06;5053501;28;20140;-79
2022/06/24 13:00:23;;;;;;;9.43;1.75;;;;;;;30.76;33.35;99849.06;5053707;28;20036;-80
2022/06/24 13:02:54;;;;;;;7.75;1.73;;;;;;;30.80;32.63;99824.63;5055416;28;20048;-80
2022/06/24 13:05:22;;;;;;;6.93;1.40;;;;;;;30.90;32.80;99834.50;5070868;28;20093;-79
2022/06/24 13:07:48;;;;;;;16.50;1.90;;;;;;;30.79;32.10;99828.50;5073212;28;20136;-85
2022/06/24 13:10:15;;;;;;;8.68;1.10;;;;;;;30.80;32.13;99801.91;5055237;28;20472;-83
2022/06/24 13:12:40;;;;;;;7.50;1.25;;;;;;;30.88;32.39;99810.19;5056982;28;20044;-85
2022/06/24 13:15:08;;;;;;;10.02;1.52;;;;;;;30.92;32.24;99789.31;5069474;28;20029;-88
2022/06/24 13:17:34;;;;;;;10.10;1.60;;;;;;;30.92;32.74;99783.81;5063125;28;20397;-87
2022/06/24 13:20:00;;;;;;;9.73;1.95;;;;;;;30.88;32.97;99792.97;5069700;28;20039;-89
2022/06/24 13:22:26;;;;;;;11.82;1.60;;;;;;;30.88;32.83;99774.63;5046823;28;20055;-88
2022/06/24 13:24:52;;;;;;;10.73;1.40;;;;;;;30.75;32.68;99772.78;5060255;28;20033;-87
2022/06/24 13:27:18;;;;;;;9.50;1.50;;;;;;;30.53;32.94;99778.25;5045800;28;20075;-87
2022/06/24 13:29:44;;;;;;;11.90;1.30;;;;;;;30.56;33.15;99783.13;5068621;28;20032;-87
2022/06/24 13:32:12;;;;;;;10.60;1.77;;;;;;;30.71;33.41;99777.25;5077411;28;20060;-86
2022/06/24 13:34:38;;;;;;;8.32;1.40;;;;;;;30.57;33.02;99765.56;5073625;28;20075;-84
2022/06/24 13:37:04;;;;;;;12.25;1.45;;;;;;;30.65;33.40;99762.09;5067806;28;20032;-86
2022/06/24 13:39:30;;;;;;;8.27;1.45;;;;;;;30.65;33.31;99756.63;5037478;28;20037;-85
2022/06/24 13:41:56;;;;;;;21.73;2.13;;;;;;;30.21;33.27;99752.75;5054259;28;20401;-90
2022/06/24 13:44:25;;;;;;;16.70;2.25;;;;;;;30.34;33.26;99763.94;5076062;28;20068;-88
2022/06/24 13:46:52;;;;;;;16.40;1.80;;;;;;;30.08;32.39;99766.47;5067890;28;20488;-88
2022/06/24 13:49:18;;;;;;;11.02;1.55;;;;;;;30.08;32.85;99756.34;5041120;28;20037;-87
2022/06/24 13:51:43;;;;;;;20.73;2.28;;;;;;;30.17;32.65;99779.09;5043233;28;20090;-85
2022/06/24 13:54:12;;;;;;;10.23;1.55;;;;;;;30.32;33.24;99766.19;5075207;28;20033;-87
2022/06/24 13:56:38;;;;;;;15.23;1.50;;;;;;;30.29;33.33;99780.47;5044782;28;20036;-86
2022/06/24 13:59:03;;;;;;;13.05;1.92;;;;;;;30.30;33.44;99787.53;5057795;28;20037;-85
2022/06/24 14:01:38;;;;;;;9.52;1.55;;;;;;;30.34;33.42;99805.78;5079910;28;20067;-87
2022/06/24 14:04:05;;;;;;;9.68;1.50;;;;;;;30.18;33.52;99791.66;5077731;28;20044;-84
2022/06/24 14:06:31;;;;;;;5.32;1.50;;;;;;;29.96;33.77;99793.56;5067048;28;20033;-84
2022/06/24 14:08:57;;;;;;;19.85;2.30;;;;;;;29.68;34.00;99799.03;5055872;28;20093;-85
2022/06/24 14:11:23;;;;;;;22.13;2.00;;;;;;;29.65;33.77;99812.50;5078597;28;20037;-86
2022/06/24 14:13:48;;;;;;;11.43;1.65;;;;;;;29.65;34.13;99807.03;5047883;28;20044;-85
2022/06/24 14:16:14;;;;;;;7.93;1.50;;;;;;;29.79;34.22;99812.47;5069816;28;20367;-85
2022/06/24 14:18:39;;;;;;;17.00;2.08;;;;;;;29.90;33.93;99827.53;5057796;28;20061;-84
2022/06/24 14:21:06;;;;;;;5.20;1.05;;;;;;;30.01;33.91;99857.09;5078888;28;20119;-84
2022/06/24 14:26:33;;;;;;;7.63;1.58;;;;;;;29.96;33.73;99865.38;4995178;28;20050;-86
2022/06/24 14:29:02;;;;;;;10.60;1.75;;;;;;;29.96;33.60;99873.59;5056249;28;20083;-86
2022/06/24 14:31:27;;;;;;;8.95;1.40;;;;;;;29.83;33.16;99866.22;5079216;28;20037;-85
2022/06/24 14:33:53;;;;;;;13.07;1.88;;;;;;;29.84;34.12;99884.22;5056467;28;20093;-87
2022/06/24 14:36:18;;;;;;;9.77;1.88;;;;;;;29.83;34.45;99899.00;5063746;28;20033;-86
2022/06/24 14:41:30;;;;;;;8.27;1.67;;;;;;;29.76;34.40;99898.59;5055398;28;20555;-87
2022/06/24 14:43:56;;;;;;;10.27;1.88;;;;;;;29.70;35.31;99902.50;5014103;28;20029;-87
2022/06/24 14:46:22;;;;;;;10.68;2.03;;;;;;;29.52;35.12;99906.16;5020818;28;20123;-83
2022/06/24 14:48:47;;;;;;;14.93;2.05;;;;;;;29.35;35.29;99917.66;5055084;28;20033;-84
2022/06/24 14:51:14;;;;;;;9.27;1.70;;;;;;;29.14;35.62;99921.81;5055140;28;20414;-85
2022/06/24 14:53:39;;;;;;;14.82;1.73;;;;;;;29.14;35.64;99936.28;5052713;28;20032;-86
2022/06/24 14:56:05;;;;;;;13.98;2.15;;;;;;;29.20;35.23;99939.72;5057504;28;20098;-90
2022/06/24 14:58:32;;;;;;;16.88;2.10;;;;;;;29.22;35.50;99965.63;5027113;28;20034;-86
2022/06/24 15:00:58;;;;;;;6.97;1.13;;;;;;;29.30;35.74;99977.00;5059280;28;20036;-86
2022/06/24 15:03:23;;;;;;;8.38;1.70;;;;;;;29.25;35.66;99986.06;5054472;28;20029;-87
2022/06/24 15:05:49;;;;;;;10.73;1.48;;;;;;;29.13;36.15;99991.16;5054979;28;20504;-86
2022/06/24 15:08:14;;;;;;;13.18;1.70;;;;;;;29.16;36.39;100005.03;5055549;28;20040;-89